Time;durP1;ratioP1;P1;durP2;ratioP2;P2;SDS_P1;SDS_P2;PMS_P1;PMS_P2;Temp;Humidity;BMP_temperature;BMP_pressure;BME280_temperature;BME280_humidity;BME280_pressure;Samples;Min_cycle;Max_cycle;Signal;HPM_P1;HPM_P2
2022/12/10 00:01:26;;;;;;;;;;;;;;;;;;5066917;28;20338;-57
2022/12/10 00:03:52;;;;;;;;;;;;;;;;;;5056840;28;19932;-55
2022/12/10 00:06:18;;;;;;;;;;;;;;;;;;5061877;28;19928;-56
2022/12/10 00:08:44;;;;;;;;;;;;;;;;;;5065800;28;19965;-56
2022/12/10 00:11:10;;;;;;;;;;;;;;;;;;5065768;28;20290;-57
2022/12/10 00:13:36;;;;;;;;;;;;;;;;;;5066136;28;20007;-57
2022/12/10 00:16:02;;;;;;;;;;;;;;;;;;5066493;28;20011;-57
2022/12/10 00:18:28;;;;;;;;;;;;;;;;;;5066396;28;19924;-58
2022/12/10 00:20:54;;;;;;;;;;;;;;;;;;5067051;28;19982;-55
2022/12/10 00:23:21;;;;;;;;;;;;;;;;;;5066111;28;19968;-57
2022/12/10 00:25:47;;;;;;;;;;;;;;;;;;5065596;28;19924;-57
2022/12/10 00:28:13;;;;;;;;;;;;;;;;;;5066661;28;19924;-57
2022/12/10 00:30:38;;;;;;;;;;;;;;;;;;5052318;28;19929;-55
2022/12/10 00:33:04;;;;;;;;;;;;;;;;;;5066649;28;20378;-57
2022/12/10 00:35:30;;;;;;;;;;;;;;;;;;5066390;28;19968;-57
2022/12/10 00:37:56;;;;;;;;;;;;;;;;;;5066358;28;20011;-57
2022/12/10 00:40:22;;;;;;;;;;;;;;;;;;5064958;28;20435;-55
2022/12/10 00:42:48;;;;;;;;;;;;;;;;;;5066239;28;19947;-57
2022/12/10 00:45:14;;;;;;;;;;;;;;;;;;5066164;28;19943;-56
2022/12/10 00:47:40;;;;;;;;;;;;;;;;;;5066074;28;20351;-56
2022/12/10 00:50:06;;;;;;;;;;;;;;;;;;5066306;28;19925;-57
2022/12/10 00:52:32;;;;;;;;;;;;;;;;;;5065479;28;19924;-57
2022/12/10 00:54:58;;;;;;;;;;;;;;;;;;5065798;28;20297;-56
2022/12/10 00:57:24;;;;;;;;;;;;;;;;;;5066669;28;19997;-57
2022/12/10 00:59:50;;;;;;;;;;;;;;;;;;5064120;28;19928;-56
2022/12/10 01:02:16;;;;;;;;;;;;;;;;;;5066136;28;19924;-57
2022/12/10 01:04:42;;;;;;;;;;;;;;;;;;5053534;28;19978;-56
2022/12/10 01:07:10;;;;;;;;;;;;;;;;;;5069572;28;19936;-55
2022/12/10 01:09:36;;;;;;;;;;;;;;;;;;5069270;28;20390;-56
2022/12/10 01:12:02;;;;;;;;;;;;;;;;;;5069085;28;19969;-56
2022/12/10 01:14:28;;;;;;;;;;;;;;;;;;5070640;28;19929;-57
2022/12/10 01:16:54;;;;;;;;;;;;;;;;;;5070373;28;20016;-57
2022/12/10 01:19:20;;;;;;;;;;;;;;;;;;5069977;28;20074;-57
2022/12/10 01:21:46;;;;;;;;;;;;;;;;;;5069126;28;19932;-56
2022/12/10 01:24:12;;;;;;;;;;;;;;;;;;5069780;28;19931;-56
2022/12/10 01:26:38;;;;;;;;;;;;;;;;;;5068895;28;20030;-57
2022/12/10 01:29:04;;;;;;;;;;;;;;;;;;5069721;28;20358;-57
2022/12/10 01:31:30;;;;;;;;;;;;;;;;;;5069555;28;19924;-57
2022/12/10 01:33:57;;;;;;;;;;;;;;;;;;5070365;28;19979;-56
2022/12/10 01:36:23;;;;;;;;;;;;;;;;;;5069094;28;19932;-57
2022/12/10 01:38:49;;;;;;;;;;;;;;;;;;5069327;28;19928;-57
2022/12/10 01:41:15;;;;;;;;;;;;;;;;;;5068467;28;19943;-56
2022/12/10 01:43:41;;;;;;;;;;;;;;;;;;5068745;28;19924;-55
2022/12/10 01:46:07;;;;;;;;;;;;;;;;;;5069507;28;20324;-56
2022/12/10 01:48:33;;;;;;;;;;;;;;;;;;5068964;28;19969;-54
2022/12/10 01:50:59;;;;;;;;;;;;;;;;;;5068854;28;19932;-57
2022/12/10 01:53:25;;;;;;;;;;;;;;;;;;5069577;28;19920;-56
2022/12/10 01:55:51;;;;;;;;;;;;;;;;;;5068237;28;20286;-56
2022/12/10 01:58:17;;;;;;;;;;;;;;;;;;5069425;28;19928;-57
2022/12/10 02:00:43;;;;;;;;;;;;;;;;;;5068868;28;19947;-57
2022/12/10 02:03:09;;;;;;;;;;;;;;;;;;5065284;28;19979;-56
2022/12/10 02:05:35;;;;;;;;;;;;;;;;;;5057814;28;20019;-54
2022/12/10 02:08:01;;;;;;;;;;;;;;;;;;5068718;28;20518;-57
2022/12/10 02:10:27;;;;;;;;;;;;;;;;;;5068580;28;19924;-57
2022/12/10 02:12:53;;;;;;;;;;;;;;;;;;5131907;22;19929;-49
2022/12/10 02:15:19;;;;;;;;;;;;;;;;;;5008476;28;20306;-53
2022/12/10 02:17:45;;;;;;;;;;;;;;;;;;5009130;28;19929;-49
2022/12/10 02:20:11;;;;;;;;;;;;;;;;;;5008612;28;19984;-50
2022/12/10 02:22:37;;;;;;;;;;;;;;;;;;5008897;28;19930;-47
2022/12/10 02:25:03;;;;;;;;;;;;;;;;;;5008122;28;19956;-50
2022/12/10 02:27:29;;;;;;;;;;;;;;;;;;5009008;28;19976;-48
2022/12/10 02:29:55;;;;;;;;;;;;;;;;;;5009438;28;20024;-47
2022/12/10 02:32:21;;;;;;;;;;;;;;;;;;5008946;28;20374;-46
2022/12/10 02:34:47;;;;;;;;;;;;;;;;;;5008117;28;19925;-48
2022/12/10 02:37:13;;;;;;;;;;;;;;;;;;5008970;28;19972;-46
2022/12/10 02:39:39;;;;;;;;;;;;;;;;;;5007171;28;19921;-52
2022/12/10 02:42:05;;;;;;;;;;;;;;;;;;5008830;28;19929;-46
2022/12/10 02:44:31;;;;;;;;;;;;;;;;;;5008447;28;19929;-47
2022/12/10 02:46:57;;;;;;;;;;;;;;;;;;5008990;28;19948;-48
2022/12/10 02:49:23;;;;;;;;;;;;;;;;;;5008407;28;20271;-50
2022/12/10 02:51:49;;;;;;;;;;;;;;;;;;5008457;28;19932;-52
2022/12/10 02:54:15;;;;;;;;;;;;;;;;;;5008900;28;19950;-46
2022/12/10 02:56:41;;;;;;;;;;;;;;;;;;5007844;28;20303;-50
2022/12/10 02:59:07;;;;;;;;;;;;;;;;;;5008642;28;19969;-50
2022/12/10 03:01:34;;;;;;;;;;;;;;;;;;5008472;28;20009;-50
2022/12/10 03:04:00;;;;;;;;;;;;;;;;;;5007442;28;19932;-50
2022/12/10 03:06:26;;;;;;;;;;;;;;;;;;5008522;28;19971;-46
2022/12/10 03:08:52;;;;;;;;;;;;;;;;;;5008223;28;20008;-50
2022/12/10 03:11:18;;;;;;;;;;;;;;;;;;5007589;28;19926;-49
2022/12/10 03:13:44;;;;;;;;;;;;;;;;;;5007947;28;19925;-49
2022/12/10 03:16:10;;;;;;;;;;;;;;;;;;5008047;28;19926;-45
2022/12/10 03:18:37;;;;;;;;;;;;;;;;;;5007630;28;19925;-50
2022/12/10 03:21:03;;;;;;;;;;;;;;;;;;5008029;28;19926;-50
2022/12/10 03:23:29;;;;;;;;;;;;;;;;;;4990367;28;19941;-55
2022/12/10 03:25:55;;;;;;;;;;;;;;;;;;5007726;28;19926;-50
2022/12/10 03:28:21;;;;;;;;;;;;;;;;;;4999823;28;19933;-46
2022/12/10 03:30:47;;;;;;;;;;;;;;;;;;5007100;28;19925;-53
2022/12/10 03:33:13;;;;;;;;;;;;;;;;;;5006922;28;19977;-45
2022/12/10 03:35:39;;;;;;;;;;;;;;;;;;5007213;28;19965;-49
2022/12/10 03:38:05;;;;;;;;;;;;;;;;;;5007693;28;19972;-46
2022/12/10 03:40:31;;;;;;;;;;;;;;;;;;5006536;28;20322;-50
2022/12/10 03:42:57;;;;;;;;;;;;;;;;;;5007984;28;19933;-48
2022/12/10 03:45:23;;;;;;;;;;;;;;;;;;5007408;28;19956;-45
2022/12/10 03:47:49;;;;;;;;;;;;;;;;;;5006445;28;19977;-45
2022/12/10 03:50:15;;;;;;;;;;;;;;;;;;4989996;28;19925;-46
2022/12/10 03:52:41;;;;;;;;;;;;;;;;;;5007345;28;19925;-48
2022/12/10 03:55:07;;;;;;;;;;;;;;;;;;5006687;28;19932;-47
2022/12/10 03:57:33;;;;;;;;;;;;;;;;;;5007203;28;19932;-50
2022/12/10 03:59:59;;;;;;;;;;;;;;;;;;5007301;28;19937;-49
2022/12/10 04:02:25;;;;;;;;;;;;;;;;;;5006635;28;20391;-47
2022/12/10 04:04:51;;;;;;;;;;;;;;;;;;5007080;28;19933;-49
2022/12/10 04:07:17;;;;;;;;;;;;;;;;;;5007181;28;19922;-46
2022/12/10 04:09:43;;;;;;;;;;;;;;;;;;5006601;28;19949;-48
2022/12/10 04:12:09;;;;;;;;;;;;;;;;;;5007105;28;19944;-46
2022/12/10 04:17:20;;;;;;;;;;;;;;;;;;5007061;28;20364;-45
2022/12/10 04:19:46;;;;;;;;;;;;;;;;;;4989117;28;20245;-48
2022/12/10 04:27:41;;;;;;;;;;;;;;;;;;5006649;28;19949;-51
2022/12/10 04:30:07;;;;;;;;;;;;;;;;;;5006843;28;19972;-46
2022/12/10 04:32:33;;;;;;;;;;;;;;;;;;5006698;28;19930;-49
2022/12/10 04:34:59;;;;;;;;;;;;;;;;;;5005963;28;19936;-53
2022/12/10 04:37:25;;;;;;;;;;;;;;;;;;5007317;28;20020;-48
2022/12/10 04:39:51;;;;;;;;;;;;;;;;;;5005451;28;20375;-49
2022/12/10 04:42:17;;;;;;;;;;;;;;;;;;4988962;28;20245;-45
2022/12/10 04:44:43;;;;;;;;;;;;;;;;;;4989074;28;19965;-47
2022/12/10 04:47:09;;;;;;;;;;;;;;;;;;5006623;28;20342;-47
2022/12/10 04:49:35;;;;;;;;;;;;;;;;;;5005739;28;19926;-52
2022/12/10 04:52:01;;;;;;;;;;;;;;;;;;5006544;28;19932;-49
2022/12/10 04:54:27;;;;;;;;;;;;;;;;;;5005999;28;20665;-47
2022/12/10 04:56:53;;;;;;;;;;;;;;;;;;5006197;28;19925;-46
2022/12/10 04:59:19;;;;;;;;;;;;;;;;;;5006126;28;19934;-46
2022/12/10 05:01:45;;;;;;;;;;;;;;;;;;5006192;28;19925;-52
2022/12/10 05:04:11;;;;;;;;;;;;;;;;;;5005845;28;19929;-46
2022/12/10 05:06:37;;;;;;;;;;;;;;;;;;5006172;28;19969;-48
2022/12/10 05:09:03;;;;;;;;;;;;;;;;;;5006553;28;19925;-49
2022/12/10 05:11:29;;;;;;;;;;;;;;;;;;5005938;28;19928;-51
2022/12/10 05:13:55;;;;;;;;;;;;;;;;;;5007974;28;19926;-50
2022/12/10 05:16:21;;;;;;;;;;;;;;;;;;5018689;28;20628;-45
2022/12/10 05:18:47;;;;;;;;;;;;;;;;;;5005787;28;19929;-52
2022/12/10 05:21:13;;;;;;;;;;;;;;;;;;5005920;28;19921;-51
2022/12/10 05:23:39;;;;;;;;;;;;;;;;;;5006150;28;19930;-49
2022/12/10 05:26:05;;;;;;;;;;;;;;;;;;5005220;28;20544;-47
2022/12/10 05:28:31;;;;;;;;;;;;;;;;;;5005878;28;19957;-46
2022/12/10 05:30:57;;;;;;;;;;;;;;;;;;5006657;28;19926;-47
2022/12/10 05:33:23;;;;;;;;;;;;;;;;;;5006092;28;19967;-48
2022/12/10 05:35:49;;;;;;;;;;;;;;;;;;5005485;28;19930;-49
2022/12/10 05:38:15;;;;;;;;;;;;;;;;;;5006161;28;20417;-45
2022/12/10 05:40:41;;;;;;;;;;;;;;;;;;5004845;28;19968;-47
2022/12/10 05:43:07;;;;;;;;;;;;;;;;;;5006197;28;20012;-46
2022/12/10 05:45:33;;;;;;;;;;;;;;;;;;5006288;28;20355;-50
2022/12/10 05:48:00;;;;;;;;;;;;;;;;;;5006114;28;19980;-52
2022/12/10 05:50:26;;;;;;;;;;;;;;;;;;4989101;28;19926;-45
2022/12/10 05:52:52;;;;;;;;;;;;;;;;;;4991265;28;19925;-46
2022/12/10 05:55:18;;;;;;;;;;;;;;;;;;5008784;28;19929;-50
2022/12/10 05:57:44;;;;;;;;;;;;;;;;;;5009386;28;19980;-48
2022/12/10 06:00:10;;;;;;;;;;;;;;;;;;5009338;28;19926;-45
2022/12/10 06:02:36;;;;;;;;;;;;;;;;;;5009229;28;20401;-51
2022/12/10 06:05:02;;;;;;;;;;;;;;;;;;5009129;28;19938;-48
2022/12/10 06:07:28;;;;;;;;;;;;;;;;;;5009496;28;20012;-52
2022/12/10 06:09:54;;;;;;;;;;;;;;;;;;5008368;28;20562;-48
2022/12/10 06:12:20;;;;;;;;;;;;;;;;;;5009159;28;20001;-46
2022/12/10 06:14:46;;;;;;;;;;;;;;;;;;5003198;28;19930;-49
2022/12/10 06:17:13;;;;;;;;;;;;;;;;;;5003847;28;19925;-52
2022/12/10 06:19:39;;;;;;;;;;;;;;;;;;5007956;28;20489;-47
2022/12/10 06:22:05;;;;;;;;;;;;;;;;;;5008576;28;19948;-47
2022/12/10 06:24:31;;;;;;;;;;;;;;;;;;5007346;28;19925;-48
2022/12/10 06:26:57;;;;;;;;;;;;;;;;;;5007410;28;19925;-48
2022/12/10 06:29:23;;;;;;;;;;;;;;;;;;5008350;28;19941;-48
2022/12/10 06:31:49;;;;;;;;;;;;;;;;;;4988365;28;19944;-48
2022/12/10 06:34:15;;;;;;;;;;;;;;;;;;5008839;28;19925;-50
2022/12/10 06:36:41;;;;;;;;;;;;;;;;;;5006329;28;19933;-47
2022/12/10 06:39:07;;;;;;;;;;;;;;;;;;5002958;28;20358;-50
2022/12/10 06:41:33;;;;;;;;;;;;;;;;;;5007705;28;19937;-49
2022/12/10 06:43:59;;;;;;;;;;;;;;;;;;4980546;28;19926;-55
2022/12/10 06:46:26;;;;;;;;;;;;;;;;;;5008912;28;19926;-49
2022/12/10 06:48:52;;;;;;;;;;;;;;;;;;5007059;28;19930;-50
2022/12/10 06:51:18;;;;;;;;;;;;;;;;;;5007677;28;19936;-49
2022/12/10 06:53:44;;;;;;;;;;;;;;;;;;5006850;28;19970;-46
2022/12/10 06:56:10;;;;;;;;;;;;;;;;;;5006693;28;19964;-46
2022/12/10 06:58:36;;;;;;;;;;;;;;;;;;5007581;28;20349;-46
2022/12/10 07:01:02;;;;;;;;;;;;;;;;;;5008130;28;19922;-48
2022/12/10 07:03:28;;;;;;;;;;;;;;;;;;5007650;28;20519;-48
2022/12/10 07:05:54;;;;;;;;;;;;;;;;;;5008411;28;20414;-45
2022/12/10 07:08:20;;;;;;;;;;;;;;;;;;5006828;28;19925;-45
2022/12/10 07:10:46;;;;;;;;;;;;;;;;;;5007477;28;19925;-50
2022/12/10 07:13:12;;;;;;;;;;;;;;;;;;5007838;28;19925;-48
2022/12/10 07:15:38;;;;;;;;;;;;;;;;;;5007796;28;19952;-49
2022/12/10 07:18:04;;;;;;;;;;;;;;;;;;5008072;28;19925;-45
2022/12/10 07:20:30;;;;;;;;;;;;;;;;;;5007061;28;19933;-48
2022/12/10 07:22:56;;;;;;;;;;;;;;;;;;5007512;28;19932;-47
2022/12/10 07:25:22;;;;;;;;;;;;;;;;;;5007035;28;20399;-46
2022/12/10 07:27:48;;;;;;;;;;;;;;;;;;5007441;28;19925;-46
2022/12/10 07:30:14;;;;;;;;;;;;;;;;;;5008053;28;19968;-46
2022/12/10 07:32:40;;;;;;;;;;;;;;;;;;5007640;28;19957;-50
2022/12/10 07:35:06;;;;;;;;;;;;;;;;;;5007562;28;20414;-48
2022/12/10 07:37:32;;;;;;;;;;;;;;;;;;5006741;28;19932;-45
2022/12/10 07:39:58;;;;;;;;;;;;;;;;;;5007119;28;19957;-48
2022/12/10 07:42:24;;;;;;;;;;;;;;;;;;5008082;28;19947;-47
2022/12/10 07:44:50;;;;;;;;;;;;;;;;;;5007482;28;20371;-49
2022/12/10 07:47:16;;;;;;;;;;;;;;;;;;5007604;28;20387;-51
2022/12/10 07:49:42;;;;;;;;;;;;;;;;;;5007296;28;19926;-46
2022/12/10 07:52:08;;;;;;;;;;;;;;;;;;5007004;28;19929;-51
2022/12/10 07:54:34;;;;;;;;;;;;;;;;;;5006552;28;20381;-48
2022/12/10 07:57:00;;;;;;;;;;;;;;;;;;5007420;28;19926;-48
2022/12/10 07:59:26;;;;;;;;;;;;;;;;;;5007713;28;20004;-45
2022/12/10 08:01:52;;;;;;;;;;;;;;;;;;5007074;28;20009;-46
2022/12/10 08:04:18;;;;;;;;;;;;;;;;;;5007730;28;19937;-48
2022/12/10 08:06:44;;;;;;;;;;;;;;;;;;5006857;28;19926;-45
2022/12/10 08:09:10;;;;;;;;;;;;;;;;;;4993294;28;19925;-48
2022/12/10 08:11:36;;;;;;;;;;;;;;;;;;5007293;28;19925;-48
2022/12/10 08:14:02;;;;;;;;;;;;;;;;;;5006592;28;19933;-51
2022/12/10 08:16:28;;;;;;;;;;;;;;;;;;5007456;28;19984;-51
2022/12/10 08:18:54;;;;;;;;;;;;;;;;;;5007213;28;19925;-51
2022/12/10 08:21:20;;;;;;;;;;;;;;;;;;5006765;28;19983;-47
2022/12/10 08:23:46;;;;;;;;;;;;;;;;;;5006232;28;20339;-47
2022/12/10 08:26:12;;;;;;;;;;;;;;;;;;5006827;28;20322;-48
2022/12/10 08:28:38;;;;;;;;;;;;;;;;;;5006853;28;20378;-53
2022/12/10 08:31:04;;;;;;;;;;;;;;;;;;5006759;28;19925;-47
2022/12/10 08:33:30;;;;;;;;;;;;;;;;;;5006333;28;19979;-51
2022/12/10 08:35:56;;;;;;;;;;;;;;;;;;5006649;28;19926;-47
2022/12/10 08:38:22;;;;;;;;;;;;;;;;;;5006695;28;20394;-51
2022/12/10 08:40:48;;;;;;;;;;;;;;;;;;5006166;28;19936;-52
2022/12/10 08:43:14;;;;;;;;;;;;;;;;;;5006717;28;19936;-47
2022/12/10 08:45:40;;;;;;;;;;;;;;;;;;5006221;28;20300;-51
2022/12/10 08:48:06;;;;;;;;;;;;;;;;;;5006292;28;19925;-49
2022/12/10 08:50:32;;;;;;;;;;;;;;;;;;5005844;28;20008;-49
2022/12/10 08:52:58;;;;;;;;;;;;;;;;;;5007141;28;20646;-54
2022/12/10 08:55:25;;;;;;;;;;;;;;;;;;4988624;28;19932;-49
2022/12/10 08:57:51;;;;;;;;;;;;;;;;;;5006271;28;19980;-49
2022/12/10 09:00:18;;;;;;;;;;;;;;;;;;5006540;28;19929;-52
2022/12/10 09:02:44;;;;;;;;;;;;;;;;;;5005635;28;19932;-48
2022/12/10 09:05:10;;;;;;;;;;;;;;;;;;5006165;28;19926;-50
2022/12/10 09:07:36;;;;;;;;;;;;;;;;;;5006437;28;20012;-48
2022/12/10 09:10:02;;;;;;;;;;;;;;;;;;4987946;28;20390;-48
2022/12/10 09:12:28;;;;;;;;;;;;;;;;;;5006635;28;19929;-47
2022/12/10 09:14:55;;;;;;;;;;;;;;;;;;5006628;28;19931;-47
2022/12/10 09:17:21;;;;;;;;;;;;;;;;;;5005676;28;20270;-48
2022/12/10 09:19:47;;;;;;;;;;;;;;;;;;5005539;28;20442;-47
2022/12/10 09:22:13;;;;;;;;;;;;;;;;;;5006400;28;20407;-46
2022/12/10 09:24:39;;;;;;;;;;;;;;;;;;5001207;28;19930;-46
2022/12/10 09:27:05;;;;;;;;;;;;;;;;;;5001632;28;19933;-48
2022/12/10 09:29:31;;;;;;;;;;;;;;;;;;5009423;28;19933;-51
2022/12/10 09:31:57;;;;;;;;;;;;;;;;;;5010318;28;19925;-49
2022/12/10 09:34:23;;;;;;;;;;;;;;;;;;5005593;28;19953;-47
2022/12/10 09:36:49;;;;;;;;;;;;;;;;;;5008836;28;19930;-51
2022/12/10 09:39:15;;;;;;;;;;;;;;;;;;5000616;28;19930;-52
2022/12/10 09:41:41;;;;;;;;;;;;;;;;;;4992010;28;19945;-49
2022/12/10 09:44:07;;;;;;;;;;;;;;;;;;4996858;28;19969;-48
2022/12/10 09:46:33;;;;;;;;;;;;;;;;;;4998716;28;20027;-51
2022/12/10 09:48:59;;;;;;;;;;;;;;;;;;4991707;28;20005;-53
2022/12/10 09:51:25;;;;;;;;;;;;;;;;;;5000565;28;19925;-51
2022/12/10 09:53:57;;;;;;;;;;;;;;;;;;4993634;28;19933;-52
2022/12/10 09:56:23;;;;;;;;;;;;;;;;;;4992218;28;19955;-50
2022/12/10 09:58:50;;;;;;;;;;;;;;;;;;4991174;28;20345;-51
2022/12/10 10:01:16;;;;;;;;;;;;;;;;;;4992415;28;19926;-48
2022/12/10 10:03:42;;;;;;;;;;;;;;;;;;4991607;28;19930;-53
2022/12/10 10:06:08;;;;;;;;;;;;;;;;;;4993176;28;19934;-47
2022/12/10 10:08:34;;;;;;;;;;;;;;;;;;4998400;28;19932;-49
2022/12/10 10:11:00;;;;;;;;;;;;;;;;;;5001300;28;20363;-48
2022/12/10 10:13:26;;;;;;;;;;;;;;;;;;4992997;28;20336;-48
2022/12/10 10:15:52;;;;;;;;;;;;;;;;;;4989030;28;20729;-51
2022/12/10 10:18:18;;;;;;;;;;;;;;;;;;4988371;28;20466;-50
2022/12/10 10:20:44;;;;;;;;;;;;;;;;;;4993593;28;19926;-49
2022/12/10 10:23:10;;;;;;;;;;;;;;;;;;4987028;28;19929;-51
2022/12/10 10:25:36;;;;;;;;;;;;;;;;;;4989949;28;19960;-49
2022/12/10 10:28:02;;;;;;;;;;;;;;;;;;4990002;28;19926;-46
2022/12/10 10:30:29;;;;;;;;;;;;;;;;;;4987521;28;20387;-47
2022/12/10 10:32:55;;;;;;;;;;;;;;;;;;4992606;28;19944;-49
2022/12/10 10:35:21;;;;;;;;;;;;;;;;;;4986816;28;19929;-51
2022/12/10 10:37:47;;;;;;;;;;;;;;;;;;4988279;28;20465;-49
2022/12/10 10:40:13;;;;;;;;;;;;;;;;;;4987749;28;19985;-50
2022/12/10 10:42:39;;;;;;;;;;;;;;;;;;4993361;28;19983;-51
2022/12/10 10:45:05;;;;;;;;;;;;;;;;;;4999318;28;20462;-53
2022/12/10 10:47:31;;;;;;;;;;;;;;;;;;4995820;28;19925;-52
2022/12/10 10:49:58;;;;;;;;;;;;;;;;;;4994119;28;19929;-50
2022/12/10 10:52:24;;;;;;;;;;;;;;;;;;4987996;28;20028;-49
2022/12/10 10:54:50;;;;;;;;;;;;;;;;;;4997601;28;19944;-48
2022/12/10 10:57:16;;;;;;;;;;;;;;;;;;4995787;28;19929;-51
2022/12/10 10:59:42;;;;;;;;;;;;;;;;;;5005135;28;20084;-47
2022/12/10 11:02:08;;;;;;;;;;;;;;;;;;5004561;28;20608;-50
2022/12/10 11:04:34;;;;;;;;;;;;;;;;;;5005022;28;20069;-48
2022/12/10 11:07:00;;;;;;;;;;;;;;;;;;5003070;28;20315;-47
2022/12/10 11:09:26;;;;;;;;;;;;;;;;;;5003805;28;19932;-47
2022/12/10 11:11:54;;;;;;;;;;;;;;;;;;4986427;28;21376;-47
2022/12/10 11:14:20;;;;;;;;;;;;;;;;;;5004703;28;20020;-50
2022/12/10 11:16:46;;;;;;;;;;;;;;;;;;5001565;28;19936;-48
2022/12/10 11:19:12;;;;;;;;;;;;;;;;;;5005142;28;20246;-51
2022/12/10 11:21:38;;;;;;;;;;;;;;;;;;4992573;28;19934;-49
2022/12/10 11:24:04;;;;;;;;;;;;;;;;;;5004078;28;19929;-50
2022/12/10 11:26:32;;;;;;;;;;;;;;;;;;4987297;28;19937;-51
2022/12/10 11:28:58;;;;;;;;;;;;;;;;;;5003882;28;19937;-52
2022/12/10 11:31:24;;;;;;;;;;;;;;;;;;5001396;28;19999;-50
2022/12/10 11:33:50;;;;;;;;;;;;;;;;;;5004776;28;19940;-49
2022/12/10 11:36:16;;;;;;;;;;;;;;;;;;5001834;28;20387;-52
2022/12/10 11:38:42;;;;;;;;;;;;;;;;;;5002149;28;20016;-51
2022/12/10 11:41:08;;;;;;;;;;;;;;;;;;4999929;28;19973;-51
2022/12/10 11:43:35;;;;;;;;;;;;;;;;;;5001919;28;19935;-47
2022/12/10 11:46:01;;;;;;;;;;;;;;;;;;5000490;28;19932;-48
2022/12/10 11:48:27;;;;;;;;;;;;;;;;;;5004555;28;19940;-48
2022/12/10 11:50:53;;;;;;;;;;;;;;;;;;5000192;28;20371;-51
2022/12/10 11:53:19;;;;;;;;;;;;;;;;;;5003678;28;19937;-52
2022/12/10 11:55:45;;;;;;;;;;;;;;;;;;5000068;28;19932;-47
2022/12/10 11:58:11;;;;;;;;;;;;;;;;;;4996815;28;19933;-47
2022/12/10 12:00:37;;;;;;;;;;;;;;;;;;5003134;28;20397;-46
2022/12/10 12:03:03;;;;;;;;;;;;;;;;;;4999145;28;19933;-52
2022/12/10 12:05:29;;;;;;;;;;;;;;;;;;5002796;28;19929;-56
2022/12/10 12:07:55;;;;;;;;;;;;;;;;;;5003848;28;19933;-52
2022/12/10 12:10:21;;;;;;;;;;;;;;;;;;5002802;28;19933;-51
2022/12/10 12:12:47;;;;;;;;;;;;;;;;;;5003081;28;20268;-52
2022/12/10 12:15:13;;;;;;;;;;;;;;;;;;5003718;28;19952;-49
2022/12/10 12:17:39;;;;;;;;;;;;;;;;;;5002560;28;20391;-52
2022/12/10 12:20:05;;;;;;;;;;;;;;;;;;5003940;28;19936;-50
2022/12/10 12:22:31;;;;;;;;;;;;;;;;;;5003797;28;20063;-48
2022/12/10 12:24:58;;;;;;;;;;;;;;;;;;4997557;28;20016;-55
2022/12/10 12:27:24;;;;;;;;;;;;;;;;;;5003361;28;19960;-47
2022/12/10 12:29:50;;;;;;;;;;;;;;;;;;5003620;28;19933;-47
2022/12/10 12:32:16;;;;;;;;;;;;;;;;;;5004073;28;19926;-46
2022/12/10 12:34:42;;;;;;;;;;;;;;;;;;5000536;28;19929;-48
2022/12/10 12:37:08;;;;;;;;;;;;;;;;;;5003956;28;19952;-49
2022/12/10 12:39:34;;;;;;;;;;;;;;;;;;4998006;28;20601;-48
2022/12/10 12:42:00;;;;;;;;;;;;;;;;;;5003780;28;19937;-49
2022/12/10 12:44:29;;;;;;;;;;;;;;;;;;5003895;28;19929;-49
2022/12/10 12:46:55;;;;;;;;;;;;;;;;;;5001378;28;19929;-49
2022/12/10 12:49:22;;;;;;;;;;;;;;;;;;5000250;28;19925;-47
2022/12/10 12:51:48;;;;;;;;;;;;;;;;;;5001282;28;19938;-50
2022/12/10 12:54:14;;;;;;;;;;;;;;;;;;4999344;28;19933;-49
2022/12/10 12:56:40;;;;;;;;;;;;;;;;;;5005735;28;19987;-48
2022/12/10 12:59:06;;;;;;;;;;;;;;;;;;5005656;28;19933;-46
2022/12/10 13:01:32;;;;;;;;;;;;;;;;;;5009917;28;19921;-49
2022/12/10 13:03:58;;;;;;;;;;;;;;;;;;5010689;28;19926;-50
2022/12/10 13:06:24;;;;;;;;;;;;;;;;;;5010486;28;19939;-52
2022/12/10 13:08:50;;;;;;;;;;;;;;;;;;5005476;28;19925;-52
2022/12/10 13:11:16;;;;;;;;;;;;;;;;;;5009185;28;19925;-48
2022/12/10 13:13:42;;;;;;;;;;;;;;;;;;5009192;28;19931;-47
2022/12/10 13:16:08;;;;;;;;;;;;;;;;;;5009499;28;19926;-49
2022/12/10 13:18:35;;;;;;;;;;;;;;;;;;5009331;28;19952;-51
2022/12/10 13:21:01;;;;;;;;;;;;;;;;;;5009697;28;20366;-46
2022/12/10 13:23:27;;;;;;;;;;;;;;;;;;5009137;28;20391;-47
2022/12/10 13:25:54;;;;;;;;;;;;;;;;;;5009387;28;19929;-47
2022/12/10 13:28:20;;;;;;;;;;;;;;;;;;5009634;28;19933;-48
2022/12/10 13:30:46;;;;;;;;;;;;;;;;;;5009733;28;19931;-49
2022/12/10 13:33:12;;;;;;;;;;;;;;;;;;5008430;28;19933;-47
2022/12/10 13:35:38;;;;;;;;;;;;;;;;;;5009333;28;20398;-46
2022/12/10 13:38:04;;;;;;;;;;;;;;;;;;5008177;28;20462;-50
2022/12/10 13:45:59;;;;;;;;;;;;;;;;;;5008915;28;19983;-47
2022/12/10 13:48:26;;;;;;;;;;;;;;;;;;5009454;28;20379;-47
2022/12/10 13:50:52;;;;;;;;;;;;;;;;;;5009220;28;19930;-48
2022/12/10 13:53:18;;;;;;;;;;;;;;;;;;5008615;28;20407;-52
2022/12/10 13:55:45;;;;;;;;;;;;;;;;;;5008940;28;19934;-48
2022/12/10 13:58:11;;;;;;;;;;;;;;;;;;5009170;28;19964;-46
2022/12/10 14:00:37;;;;;;;;;;;;;;;;;;5007676;28;19961;-49
2022/12/10 14:03:03;;;;;;;;;;;;;;;;;;5008770;28;20369;-47
2022/12/10 14:05:29;;;;;;;;;;;;;;;;;;5008435;28;19933;-52
2022/12/10 14:07:55;;;;;;;;;;;;;;;;;;5008998;28;19945;-47
2022/12/10 14:10:22;;;;;;;;;;;;;;;;;;5008184;28;20020;-48
2022/12/10 14:12:48;;;;;;;;;;;;;;;;;;5007682;28;20398;-51
2022/12/10 14:15:14;;;;;;;;;;;;;;;;;;5008482;28;19925;-46
2022/12/10 14:17:40;;;;;;;;;;;;;;;;;;5008333;28;19931;-48
2022/12/10 14:20:06;;;;;;;;;;;;;;;;;;5009062;28;19944;-46
2022/12/10 14:22:32;;;;;;;;;;;;;;;;;;5008196;28;19953;-52
2022/12/10 14:24:58;;;;;;;;;;;;;;;;;;5007911;28;19965;-49
2022/12/10 14:27:24;;;;;;;;;;;;;;;;;;5008979;28;19928;-47
2022/12/10 14:29:50;;;;;;;;;;;;;;;;;;5008516;28;20287;-50
2022/12/10 14:32:16;;;;;;;;;;;;;;;;;;5008354;28;19925;-46
2022/12/10 14:34:42;;;;;;;;;;;;;;;;;;5008203;28;19932;-48
2022/12/10 14:37:08;;;;;;;;;;;;;;;;;;5008438;28;19926;-47
2022/12/10 14:39:34;;;;;;;;;;;;;;;;;;5007493;28;19926;-49
2022/12/10 14:42:01;;;;;;;;;;;;;;;;;;5007650;28;20291;-48
2022/12/10 14:44:27;;;;;;;;;;;;;;;;;;5008568;28;19976;-50
2022/12/10 14:46:53;;;;;;;;;;;;;;;;;;5007567;28;19933;-49
2022/12/10 14:49:19;;;;;;;;;;;;;;;;;;5008109;28;19941;-47
2022/12/10 14:51:45;;;;;;;;;;;;;;;;;;4990227;28;19947;-47
2022/12/10 14:54:11;;;;;;;;;;;;;;;;;;5007262;28;20389;-50
2022/12/10 14:56:37;;;;;;;;;;;;;;;;;;5007150;28;19926;-48
2022/12/10 14:59:03;;;;;;;;;;;;;;;;;;5007229;28;19926;-48
2022/12/10 15:01:29;;;;;;;;;;;;;;;;;;5007206;28;19925;-57
2022/12/10 15:03:55;;;;;;;;;;;;;;;;;;5007007;28;19925;-48
2022/12/10 15:06:21;;;;;;;;;;;;;;;;;;5007019;28;19971;-49
2022/12/10 15:08:47;;;;;;;;;;;;;;;;;;5005787;28;19934;-46
2022/12/10 15:11:13;;;;;;;;;;;;;;;;;;5004762;28;20716;-46
2022/12/10 15:13:39;;;;;;;;;;;;;;;;;;5000675;28;20437;-49
2022/12/10 15:16:05;;;;;;;;;;;;;;;;;;4992875;28;19977;-49
2022/12/10 15:18:32;;;;;;;;;;;;;;;;;;4993863;28;20090;-49
2022/12/10 15:20:58;;;;;;;;;;;;;;;;;;4991582;28;19925;-45
2022/12/10 15:23:24;;;;;;;;;;;;;;;;;;4990100;28;20020;-50
2022/12/10 15:25:50;;;;;;;;;;;;;;;;;;4993100;28;20020;-48
2022/12/10 15:28:16;;;;;;;;;;;;;;;;;;4987847;28;19937;-52
2022/12/10 15:30:47;;;;;;;;;;;;;;;;;;4992938;28;19933;-55
2022/12/10 15:33:13;;;;;;;;;;;;;;;;;;4990061;28;19925;-56
2022/12/10 15:35:39;;;;;;;;;;;;;;;;;;4990315;28;19926;-53
2022/12/10 15:38:05;;;;;;;;;;;;;;;;;;4991994;28;19926;-55
2022/12/10 15:40:31;;;;;;;;;;;;;;;;;;4999577;28;19976;-53
2022/12/10 15:43:00;;;;;;;;;;;;;;;;;;5000048;28;19985;-52
2022/12/10 15:45:26;;;;;;;;;;;;;;;;;;4998174;28;19961;-52
2022/12/10 15:47:52;;;;;;;;;;;;;;;;;;4999783;28;19925;-52
2022/12/10 15:50:18;;;;;;;;;;;;;;;;;;5004175;28;20465;-57
2022/12/10 15:52:44;;;;;;;;;;;;;;;;;;4999385;28;19972;-48
2022/12/10 15:55:10;;;;;;;;;;;;;;;;;;4999899;28;20012;-55
2022/12/10 15:57:36;;;;;;;;;;;;;;;;;;4996572;28;19933;-53
2022/12/10 16:00:03;;;;;;;;;;;;;;;;;;5001455;28;19940;-55
2022/12/10 16:02:29;;;;;;;;;;;;;;;;;;4997392;28;19980;-53
2022/12/10 16:04:55;;;;;;;;;;;;;;;;;;5002121;28;19925;-52
2022/12/10 16:07:21;;;;;;;;;;;;;;;;;;4997471;28;19983;-51
2022/12/10 16:09:47;;;;;;;;;;;;;;;;;;5002361;28;19929;-56
2022/12/10 16:12:13;;;;;;;;;;;;;;;;;;4999443;28;19929;-52
2022/12/10 16:14:39;;;;;;;;;;;;;;;;;;5000889;28;19985;-52
2022/12/10 16:17:06;;;;;;;;;;;;;;;;;;4999141;28;20013;-53
2022/12/10 16:19:33;;;;;;;;;;;;;;;;;;5000010;28;19972;-54
2022/12/10 16:27:50;;;;;;;;;;;;;;;;;;4998501;28;20012;-49
2022/12/10 16:30:16;;;;;;;;;;;;;;;;;;5002110;28;19976;-52
2022/12/10 16:32:42;;;;;;;;;;;;;;;;;;5001239;28;19929;-50
2022/12/10 16:35:08;;;;;;;;;;;;;;;;;;5001978;28;19933;-48
2022/12/10 16:37:34;;;;;;;;;;;;;;;;;;4994776;28;19929;-51
2022/12/10 16:40:00;;;;;;;;;;;;;;;;;;4997673;28;20414;-48
2022/12/10 16:42:26;;;;;;;;;;;;;;;;;;4998969;28;19934;-50
2022/12/10 16:47:50;;;;;;;;;;;;;;;;;;4997185;28;19920;-47
2022/12/10 16:50:16;;;;;;;;;;;;;;;;;;4998038;28;19978;-49
2022/12/10 16:52:42;;;;;;;;;;;;;;;;;;4999446;28;19949;-48
2022/12/10 16:55:08;;;;;;;;;;;;;;;;;;5003249;28;19933;-55
2022/12/10 16:57:34;;;;;;;;;;;;;;;;;;4999811;28;20262;-47
2022/12/10 17:00:00;;;;;;;;;;;;;;;;;;5002875;28;20394;-50